.
WxDataArchive / Data Records for 2006-07-04
2006-07-03 July 2006 2006-07-05

Data Records for Tuesday, 04 July 2006

Time	Temp	Chill	HIndex	Humid	Dewpt	 Wind 	HiWind	WindDir	Rain 	Barom 
-----	----	-----	------	-----	-----	------	------	-------	-----	----- 
00:00	76.1	76.1	77.5	75	67.6	2	5	248	0.00	29.915 
00:05	76.0	76.0	77.4	75	67.5	2	4	248	0.00	29.915 
00:10	75.6	75.6	76.8	76	67.5	2	4	270	0.00	29.915 
00:15	75.6	75.6	76.9	75	67.1	2	5	270	0.00	29.919 
00:20	75.6	75.6	76.9	75	67.1	2	6	270	0.00	29.919 
00:25	75.4	75.4	76.6	75	66.9	2	5	248	0.00	29.919 
00:30	75.3	75.3	76.6	74	66.4	2	5	248	0.00	29.916 
00:35	75.3	75.3	76.6	74	66.4	3	5	270	0.00	29.916 
00:40	75.3	75.3	76.7	73	66.0	3	13	248	0.00	29.916 
00:45	75.3	75.3	76.7	73	66.0	3	6	270	0.00	29.909 
00:50	75.4	75.4	76.8	73	66.1	4	7	270	0.00	29.909 
00:55	75.3	75.3	76.7	73	66.0	2	5	248	0.00	29.909 
01:00	75.1	75.1	76.5	73	65.8	4	10	270	0.00	29.905 
01:05	74.9	74.9	74.9	73	65.6	3	6	248	0.00	29.905 
01:10	74.7	74.7	74.7	74	65.8	3	5	248	0.00	29.905 
01:15	74.7	74.7	74.7	73	65.5	3	6	270	0.00	29.900 
01:20	74.6	74.6	74.6	73	65.4	3	5	270	0.00	29.900 
01:25	74.4	74.4	74.4	74	65.6	2	6	248	0.00	29.900 
01:30	74.4	74.4	74.4	74	65.6	2	7	248	0.00	29.897 
01:35	74.2	74.2	74.2	73	65.0	2	5	248	0.00	29.897 
01:40	74.0	74.0	74.0	73	64.8	2	5	248	0.00	29.897 
01:45	74.4	74.4	74.4	72	64.8	3	5	248	0.00	29.892 
01:50	74.2	74.2	74.2	71	64.2	1	3	248	0.00	29.892 
01:55	74.2	74.2	74.2	71	64.2	1	1	248	0.00	29.892 
02:00	74.0	74.0	74.0	72	64.4	0	1	248	0.00	29.879 
02:05	73.9	73.9	73.9	71	63.9	0	1	248	0.00	29.879 
02:10	73.9	73.9	73.9	71	63.9	0	2	248	0.00	29.879 
02:15	73.9	73.9	73.9	71	63.9	0	1	248	0.00	29.876 
02:20	73.9	73.9	73.9	70	63.5	0	2	248	0.00	29.876 
02:25	73.9	73.9	73.9	70	63.5	0	1	248	0.00	29.876 
02:30	73.7	73.7	73.7	71	63.7	0	1	248	0.00	29.868 
02:35	73.7	73.7	73.7	70	63.3	0	2	248	0.00	29.868 
02:40	73.7	73.7	73.7	71	63.7	0	2	248	0.00	29.868 
02:45	73.5	73.5	73.5	71	63.5	0	1	248	0.00	29.869 
02:50	73.3	73.3	73.3	71	63.3	0	1	248	0.00	29.869 
02:55	73.3	73.3	73.3	71	63.3	0	2	248	0.00	29.869 
03:00	73.3	73.3	73.3	71	63.3	0	1	248	0.00	29.866 
03:05	73.2	73.2	73.2	71	63.2	0	2	248	0.00	29.866 
03:10	73.2	73.2	73.2	71	63.2	0	1	248	0.00	29.866 
03:15	73.0	73.0	73.0	71	63.0	0	1	248	0.00	29.874 
03:20	73.0	73.0	73.0	71	63.0	0	1	248	0.00	29.874 
03:25	73.0	73.0	73.0	72	63.4	0	1	248	0.00	29.874 
03:30	72.8	72.8	72.8	72	63.2	0	1	248	0.00	29.871 
03:35	72.8	72.8	72.8	71	62.8	0	1	248	0.00	29.871 
03:40	72.7	72.7	72.7	71	62.7	0	1	248	0.00	29.871 
03:45	72.7	72.7	72.7	71	62.7	0	2	248	0.00	29.876 
03:50	72.5	72.5	72.5	72	62.9	0	1	248	0.00	29.876 
03:55	72.5	72.5	72.5	72	62.9	0	2	248	0.00	29.876 
04:00	72.5	72.5	72.5	72	62.9	1	2	248	0.00	29.876 
04:05	72.5	72.5	72.5	72	62.9	1	2	248	0.00	29.876 
04:10	72.7	72.7	72.7	72	63.1	1	2	248	0.00	29.876 
04:15	72.7	72.7	72.7	72	63.1	0	2	248	0.00	29.873 
04:20	72.5	72.5	72.5	72	62.9	1	3	248	0.00	29.873 
04:25	72.5	72.5	72.5	73	63.3	1	4	248	0.00	29.873 
04:30	72.3	72.3	72.3	73	63.1	2	4	248	0.00	29.882 
04:35	72.5	72.5	72.5	73	63.3	2	3	248	0.00	29.882 
04:40	72.7	72.7	72.7	73	63.5	2	4	248	0.00	29.882 
04:45	72.5	72.5	72.5	74	63.7	1	4	248	0.00	29.882 
04:50	72.3	72.3	72.3	75	63.9	2	4	225	0.00	29.882 
04:55	72.3	72.3	72.3	76	64.3	2	4	248	0.00	29.882 
05:00	72.3	72.3	72.3	76	64.3	2	5	248	0.00	29.877 
05:05	72.3	72.3	72.3	77	64.7	2	3	248	0.00	29.877 
05:10	72.3	72.3	72.3	77	64.7	1	3	270	0.00	29.877 
05:15	72.3	72.3	72.3	77	64.7	1	4	225	0.00	29.887 
05:20	72.3	72.3	72.3	77	64.7	2	6	248	0.00	29.887 
05:25	72.5	72.5	72.5	77	64.9	2	4	248	0.00	29.887 
05:30	72.5	72.5	72.5	78	65.2	2	4	248	0.00	29.877 
05:35	72.5	72.5	72.5	78	65.2	1	5	248	0.00	29.877 
05:40	72.7	72.7	72.7	78	65.4	2	4	248	0.00	29.877 
05:45	72.7	72.7	72.7	78	65.4	2	5	248	0.00	29.882 
05:50	72.7	72.7	72.7	78	65.4	1	3	248	0.00	29.882 
05:55	72.7	72.7	72.7	79	65.8	2	5	270	0.00	29.882 
06:00	72.5	72.5	72.5	79	65.6	1	3	270	0.00	29.879 
06:05	72.3	72.3	72.3	80	65.8	1	3	270	0.00	29.879 
06:10	72.1	72.1	72.1	80	65.6	2	4	248	0.00	29.879 
06:15	72.0	72.0	72.0	81	65.8	1	3	248	0.00	29.885 
06:20	71.8	71.8	71.8	81	65.6	1	4	270	0.00	29.885 
06:25	72.0	72.0	72.0	81	65.8	1	3	292	0.00	29.885 
06:30	72.0	72.0	72.0	81	65.8	1	3	248	0.00	29.878 
06:35	72.0	72.0	72.0	81	65.8	1	2	248	0.00	29.878 
06:40	72.0	72.0	72.0	81	65.8	1	4	248	0.00	29.878 
06:45	72.0	72.0	72.0	81	65.8	1	2	270	0.00	29.886 
06:50	72.0	72.0	72.0	81	65.8	1	3	270	0.00	29.886 
06:55	72.0	72.0	72.0	81	65.8	1	3	315	0.00	29.886 
07:00	71.8	71.8	71.8	81	65.6	1	3	270	0.00	29.890 
07:05	71.8	71.8	71.8	81	65.6	1	3	248	0.00	29.890 
07:10	71.8	71.8	71.8	82	66.0	1	2	270	0.00	29.890 
07:15	71.8	71.8	71.8	82	66.0	1	3	248	0.00	29.887 
07:20	72.0	72.0	72.0	82	66.2	2	4	248	0.00	29.887 
07:25	72.1	72.1	72.1	81	65.9	2	4	248	0.00	29.887 
07:30	72.1	72.1	72.1	81	65.9	1	3	248	0.00	29.880 
07:35	72.5	72.5	72.5	81	66.3	1	3	248	0.00	29.880 
07:40	72.7	72.7	72.7	81	66.5	1	2	315	0.00	29.880 
07:45	73.0	73.0	73.0	80	66.5	1	3	315	0.00	29.883 
07:50	73.0	73.0	73.0	80	66.5	1	4	338	0.00	29.883 
07:55	73.2	73.2	73.2	80	66.6	1	3	292	0.00	29.883 
08:00	73.2	73.2	73.2	79	66.3	2	4	248	0.00	29.881 
08:05	73.3	73.3	73.3	80	66.7	2	4	270	0.00	29.881 
08:10	73.5	73.5	73.5	79	66.6	1	3	270	0.00	29.881 
08:15	74.0	74.0	74.0	79	67.1	2	3	248	0.00	29.888 
08:20	74.6	74.6	74.6	77	66.9	2	4	292	0.00	29.888 
08:25	74.6	74.6	74.6	77	66.9	2	4	292	0.00	29.888 
08:30	74.6	74.6	74.6	78	67.3	1	5	292	0.00	29.887 
08:35	74.6	74.6	74.6	77	66.9	2	4	270	0.00	29.887 
08:40	74.6	74.6	74.6	78	67.3	2	3	270	0.00	29.887 
08:45	74.6	74.6	74.6	77	66.9	2	6	270	0.00	29.890 
08:50	74.6	74.6	74.6	78	67.3	1	4	248	0.00	29.890 
08:55	74.7	74.7	74.7	78	67.4	2	4	270	0.00	29.890 
09:00	74.7	74.7	74.7	78	67.4	1	3	270	0.00	29.891 
09:05	74.9	74.9	74.9	78	67.6	1	3	270	0.00	29.891 
09:10	74.9	74.9	74.9	78	67.6	1	3	248	0.00	29.891 
09:15	74.9	74.9	74.9	78	67.6	1	7	292	0.00	29.889 
09:20	74.7	74.7	74.7	78	67.4	1	3	0	0.00	29.889 
09:25	74.7	74.7	74.7	79	67.7	2	4	315	0.00	29.889 
09:30	74.9	74.9	74.9	79	67.9	2	3	270	0.00	29.893 
09:35	75.4	75.4	76.3	78	68.0	1	3	315	0.00	29.893 
09:40	76.3	76.3	77.6	77	68.5	2	5	270	0.00	29.893 
09:45	76.8	76.8	78.4	75	68.3	2	5	248	0.00	29.890 
09:50	77.2	77.2	79.0	76	69.0	1	4	292	0.00	29.890 
09:55	77.2	77.2	79.0	75	68.6	2	5	270	0.00	29.890 
10:00	76.8	76.8	78.4	77	69.0	2	4	270	0.00	29.902 
10:05	76.7	76.7	78.2	77	68.9	1	3	248	0.00	29.902 
10:10	76.5	76.5	77.9	77	68.7	2	4	292	0.00	29.902 
10:15	76.5	76.5	77.9	77	68.7	2	4	270	0.00	29.902 
10:20	76.3	76.3	77.6	78	68.9	2	4	315	0.00	29.902 
10:25	76.5	76.5	77.9	78	69.1	1	4	315	0.00	29.902 
10:30	77.2	77.2	78.9	78	69.8	1	3	315	0.00	29.896 
10:35	77.6	77.6	79.6	77	69.8	2	5	270	0.00	29.896 
10:40	77.9	77.9	80.0	75	69.3	2	3	315	0.00	29.896 
10:45	77.7	77.7	79.7	77	69.9	1	2	315	0.00	29.896 
10:50	77.9	77.9	80.1	77	70.1	1	3	22	0.00	29.896 
10:55	78.1	78.1	80.4	77	70.3	1	2	315	0.00	29.896 
11:00	78.1	78.1	80.4	76	69.9	1	3	292	0.00	29.894 
11:05	78.1	78.1	80.4	76	69.9	1	3	270	0.00	29.894 
11:10	77.7	77.7	79.7	77	69.9	1	4	315	0.00	29.894 
11:15	77.6	77.6	79.6	77	69.8	2	4	270	0.00	29.901 
11:20	77.7	77.7	79.7	77	69.9	1	4	270	0.00	29.901 
11:25	78.5	78.5	81.1	77	70.7	1	3	270	0.00	29.901 
11:30	78.5	78.5	81.0	75	69.9	1	4	315	0.00	29.905 
11:35	78.5	78.5	81.0	75	69.9	2	4	315	0.00	29.905 
11:40	78.5	78.5	81.0	76	70.3	1	3	292	0.00	29.905 
11:45	78.6	78.6	81.2	76	70.4	2	3	292	0.00	29.904 
11:50	78.8	78.8	81.5	75	70.2	1	3	270	0.00	29.904 
11:55	79.0	79.0	81.8	75	70.4	1	5	292	0.00	29.904 
12:00	78.6	78.6	81.1	75	70.0	1	3	270	0.00	29.911 
12:05	78.5	78.5	81.0	75	69.9	2	3	292	0.00	29.911 
12:10	78.6	78.6	81.1	75	70.0	1	2	270	0.00	29.911 
12:15	79.0	79.0	81.7	74	70.0	2	3	270	0.00	29.909 
12:20	79.4	79.4	82.4	74	70.4	1	2	270	0.00	29.909 
12:25	79.4	79.4	82.4	74	70.4	1	2	292	0.00	29.909 
12:30	79.6	79.6	82.8	75	71.0	1	3	292	0.00	29.913 
12:35	79.8	79.8	83.0	73	70.4	1	3	315	0.00	29.913 
12:40	79.8	79.8	82.9	72	69.9	2	3	248	0.00	29.913 
12:45	79.6	79.6	82.5	72	69.8	1	3	248	0.00	29.913 
12:50	79.6	79.6	82.6	73	70.2	1	4	248	0.00	29.913 
12:55	79.8	79.8	83.0	73	70.4	1	3	248	0.00	29.913 
13:00	80.1	80.1	83.4	72	70.2	1	3	248	0.00	29.909 
13:05	80.3	80.3	83.9	73	70.8	1	3	270	0.00	29.909 
13:10	80.3	80.3	83.6	71	70.0	1	4	248	0.00	29.909 
13:15	80.5	80.5	83.9	71	70.2	2	4	248	0.00	29.912 
13:20	80.9	80.9	84.8	72	71.0	1	3	248	0.00	29.912 
13:25	81.1	81.1	85.0	71	70.8	1	4	338	0.00	29.912 
13:30	81.2	81.2	84.8	69	70.0	1	3	270	0.00	29.908 
13:35	81.1	81.1	84.8	70	70.4	2	4	248	0.00	29.908 
13:40	81.2	81.2	84.8	69	70.0	1	3	248	0.00	29.908 
13:45	80.9	80.9	84.3	69	69.8	2	4	248	0.00	29.909 
13:50	80.9	80.9	84.3	69	69.8	2	5	270	0.00	29.909 
13:55	80.9	80.9	84.5	70	70.2	2	4	248	0.00	29.909 
14:00	81.2	81.2	85.2	71	70.9	2	5	248	0.00	29.902 
14:05	81.2	81.2	85.0	70	70.5	2	7	225	0.00	29.902 
14:10	81.1	81.1	84.8	70	70.4	3	5	270	0.00	29.902 
14:15	81.2	81.2	85.2	71	70.9	2	6	248	0.00	29.901 
14:20	81.6	81.6	85.9	71	71.3	2	5	270	0.00	29.901 
14:25	82.2	82.2	86.6	69	71.0	2	5	292	0.00	29.901 
14:30	82.4	82.4	87.4	71	72.0	3	5	248	0.00	29.896 
14:35	82.4	82.4	87.7	72	72.4	3	6	248	0.00	29.896 
14:40	81.8	81.8	86.3	71	71.5	3	6	248	0.00	29.896 
14:45	81.6	81.6	86.5	74	72.5	2	4	248	0.00	29.890 
14:50	81.4	81.4	85.5	71	71.1	2	4	248	0.00	29.890 
14:55	81.2	81.2	85.5	73	71.7	1	3	248	0.00	29.890 
15:00	81.8	81.8	86.5	72	71.9	2	5	248	0.00	29.887 
15:05	82.6	82.6	87.3	69	71.4	2	5	270	0.00	29.887 
15:10	81.8	81.8	85.9	69	70.6	2	5	248	0.00	29.887 
15:15	80.1	80.1	84.0	77	72.2	1	4	338	0.03	29.888 
15:20	77.9	77.9	80.1	80	71.2	1	4	248	0.03	29.888 
15:25	76.8	76.8	78.2	82	70.9	0	1	248	0.00	29.888 
15:30	76.3	76.3	77.0	86	71.8	0	1	248	0.00	29.892 
15:35	76.3	76.3	76.8	88	72.5	0	1	248	0.00	29.892 
15:40	76.3	76.3	76.9	87	72.1	1	4	248	0.00	29.892 
15:45	76.5	76.5	77.3	87	72.3	1	3	248	0.00	29.892 
15:50	76.7	76.7	77.8	85	71.8	1	3	248	0.00	29.892 
15:55	76.8	76.8	78.1	84	71.6	2	4	248	0.00	29.892 
16:00	76.5	76.5	77.6	83	70.9	2	5	270	0.00	29.886 
16:05	76.3	76.3	77.2	83	70.7	2	5	248	0.00	29.886 
16:10	76.7	76.7	77.9	83	71.1	2	5	248	0.00	29.886 
16:15	77.0	77.0	78.6	80	70.3	1	4	248	0.00	29.878 
16:20	77.6	77.6	79.6	79	70.6	1	4	248	0.00	29.878 
16:25	79.0	79.0	81.9	76	70.8	2	4	270	0.00	29.878 
16:30	79.8	79.8	83.3	76	71.5	1	4	158	0.00	29.871 
16:35	80.7	80.7	84.7	74	71.6	1	3	225	0.00	29.871 
16:40	81.2	81.2	85.2	71	70.9	1	3	248	0.00	29.871 
16:45	81.4	81.4	84.8	67	69.4	2	3	248	0.00	29.870 
16:50	81.6	81.6	85.7	70	70.8	0	1	248	0.00	29.870 
16:55	81.6	81.6	85.7	70	70.8	0	2	248	0.00	29.870 
17:00	81.8	81.8	85.3	66	69.3	1	3	248	0.00	29.869 
17:05	81.6	81.6	84.4	63	67.8	1	3	248	0.00	29.869 
17:10	81.2	81.2	83.6	62	66.9	1	4	270	0.00	29.869 
17:15	81.1	81.1	83.8	64	67.7	0	2	292	0.00	29.870 
17:20	81.1	81.1	83.3	61	66.4	0	3	292	0.00	29.870 
17:25	81.2	81.2	83.3	60	66.0	1	2	292	0.00	29.870 
17:30	81.2	81.2	83.2	59	65.5	1	3	292	0.00	29.870 
17:35	81.4	81.4	83.1	57	64.7	1	2	338	0.00	29.870 
17:40	81.4	81.4	83.1	57	64.7	1	2	338	0.00	29.870 
17:45	81.8	81.8	83.5	56	64.5	2	4	292	0.00	29.871 
17:50	82.8	82.8	84.8	56	65.5	1	4	292	0.00	29.871 
17:55	83.4	83.4	85.0	53	64.4	1	3	270	0.00	29.871 
18:00	83.4	83.4	84.6	51	63.3	1	2	338	0.00	29.868 
18:05	83.0	83.0	84.1	51	63.0	1	3	0	0.00	29.868 
18:10	82.6	82.6	83.4	50	62.0	1	3	338	0.00	29.868 
18:15	82.8	82.8	83.8	51	62.8	1	4	270	0.00	29.872 
18:20	83.2	83.2	84.3	51	63.2	2	6	292	0.00	29.872 
18:25	83.2	83.2	84.0	49	62.0	1	4	270	0.00	29.872 
18:30	83.4	83.4	84.4	50	62.8	1	4	338	0.00	29.883 
18:35	83.2	83.2	84.1	50	62.6	2	5	270	0.00	29.883 
18:40	83.0	83.0	83.7	49	61.8	1	3	292	0.00	29.883 
18:45	82.6	82.6	83.4	50	62.0	1	3	315	0.00	29.888 
18:50	81.8	81.8	82.6	50	61.3	1	3	292	0.00	29.888 
18:55	81.2	81.2	81.7	48	59.6	1	3	315	0.00	29.888 
19:00	81.1	81.1	81.6	48	59.5	1	3	292	0.00	29.893 
19:05	81.1	81.1	81.6	48	59.5	1	5	338	0.00	29.893 
19:10	81.1	81.1	81.6	48	59.5	1	3	338	0.00	29.893 
19:15	80.7	80.7	81.3	49	59.7	0	1	315	0.00	29.893 
19:20	80.1	80.1	80.9	50	59.8	0	2	338	0.00	29.893 
19:25	80.1	80.1	80.9	50	59.8	0	2	338	0.00	29.893 
19:30	80.1	80.1	81.1	52	60.9	1	5	338	0.00	29.898 
19:35	79.8	79.8	80.6	50	59.5	1	3	22	0.00	29.898 
19:40	79.8	79.8	80.6	50	59.5	1	4	292	0.00	29.898 
19:45	79.6	79.6	80.4	49	58.7	1	3	292	0.00	29.904 
19:50	79.4	79.4	80.4	51	59.7	0	3	292	0.00	29.904 
19:55	79.2	79.2	80.2	51	59.5	0	2	270	0.00	29.904 
20:00	79.0	79.0	79.9	49	58.2	1	3	292	0.00	29.905 
20:05	78.8	78.8	79.7	48	57.4	1	2	292	0.00	29.905 
20:10	78.6	78.6	79.6	49	57.8	0	2	270	0.00	29.905 
20:15	78.3	78.3	79.4	50	58.1	1	2	315	0.00	29.906 
20:20	77.9	77.9	79.2	50	57.7	0	2	315	0.00	29.906 
20:25	77.7	77.7	79.2	53	59.2	0	2	292	0.00	29.906 
20:30	77.4	77.4	78.9	53	58.9	0	1	292	0.00	29.913 
20:35	77.0	77.0	78.7	52	58.0	0	2	338	0.00	29.913 
20:40	76.7	76.7	78.5	52	57.7	1	3	270	0.00	29.913 
20:45	76.3	76.3	78.2	51	56.8	1	3	292	0.00	29.919 
20:50	76.0	76.0	78.1	51	56.5	1	3	270	0.00	29.919 
20:55	75.6	75.6	77.9	53	57.2	0	2	292	0.00	29.919 
21:00	75.1	75.1	77.6	53	56.8	0	2	292	0.00	29.921 
21:05	74.7	74.7	74.7	53	56.4	1	2	338	0.00	29.921 
21:10	74.4	74.4	74.4	53	56.1	1	2	338	0.00	29.921 
21:15	74.0	74.0	74.0	53	55.8	0	2	315	0.00	29.924 
21:20	73.7	73.7	73.7	54	56.0	0	1	315	0.00	29.924 
21:25	73.2	73.2	73.2	55	56.0	0	1	315	0.00	29.924 
21:30	73.0	73.0	73.0	55	55.9	0	1	315	0.00	29.928 
21:35	72.7	72.7	72.7	55	55.6	0	1	315	0.00	29.928 
21:40	72.3	72.3	72.3	56	55.7	0	1	315	0.00	29.928 
21:45	72.0	72.0	72.0	56	55.4	0	1	315	0.00	29.934 
21:50	71.6	71.6	71.6	56	55.1	0	1	315	0.00	29.934 
21:55	71.3	71.3	71.3	56	54.8	0	1	315	0.00	29.934 
22:00	71.1	71.1	71.1	57	55.1	0	1	315	0.00	29.940 
22:05	70.8	70.8	70.8	56	54.3	0	1	315	0.00	29.940 
22:10	70.6	70.6	70.6	55	53.6	0	2	315	0.00	29.940 
22:15	70.6	70.6	70.6	56	54.1	1	3	338	0.00	29.946 
22:20	70.3	70.3	70.3	55	53.4	0	2	338	0.00	29.946 
22:25	70.1	70.1	70.1	55	53.2	0	1	338	0.00	29.946 
22:30	69.8	69.8	69.8	56	53.4	0	1	338	0.00	29.951 
22:35	69.4	69.4	69.4	57	53.5	0	2	338	0.00	29.951 
22:40	69.1	69.1	69.1	57	53.2	0	1	338	0.00	29.951 
22:45	68.8	68.8	68.8	58	53.4	0	1	338	0.00	29.956 
22:50	68.4	68.4	68.4	58	53.0	0	1	338	0.00	29.956 
22:55	68.4	68.4	68.4	59	53.5	0	2	338	0.00	29.956 
23:00	68.1	68.1	68.1	58	52.8	0	1	338	0.00	29.959 
23:05	67.9	67.9	67.9	59	53.0	0	2	338	0.00	29.959 
23:10	67.6	67.6	67.6	59	52.8	0	1	338	0.00	29.959 
23:15	67.4	67.4	67.4	60	53.0	0	1	338	0.00	29.962 
23:20	67.1	67.1	67.1	60	52.7	0	1	338	0.00	29.962 
23:25	66.8	66.8	66.8	61	52.9	0	1	338	0.00	29.962 
23:30	66.6	66.6	66.6	62	53.2	0	1	338	0.00	29.963 
23:35	66.3	66.3	66.3	62	52.9	0	1	338	0.00	29.963 
23:40	66.0	66.0	66.0	62	52.6	0	1	338	0.00	29.963 
23:45	65.8	65.8	65.8	62	52.4	0	0	---	0.00	29.961 
23:50	65.6	65.6	65.6	63	52.7	0	0	---	0.00	29.961 
23:55	65.3	65.3	65.3	63	52.4	0	0	---	0.00	29.961 

CoCoRaHS
IN-AL-39
A2 Web Hosting
Creative Commons License
GoDaddy
Look for:

loaded 2017-10-17 00:29:30 • last modified 2010-11-18 10:43:29
Privacy PolicyDisclaimer
• wx.awcolley.com is powered by PmWiki v.2002016 •
• all content (unless otherwise noted) © 2017 A W Colley